Airfield :
LOGIN :

Register | Disclaimer

   EN    FR    IT 

 










Legend :    VFR   Marginal VFR   IFR   Intensive IFR   Very Intensive IFR
Visi :
Ceiling :
>= 8 km
>= 3000ft
5 to 8 km
1000 to 3000 ft
1500m to 5 km
500 to 1000 ft
800 to 1500m
200 to 500 ft
< 800m
< 200 ft
Symbols :   Thunderstorms  Fog  Heavy snow  Heavy precipitations  Wind > 20 kt
SIGMETs :     Misc.  Thunderstorms  Icing  Turbulence  Mountain Waves  Volcanic Ashes







- Airport Elevation : 466 ft


LHPA - Pápa

CURRENT METAR :
  • 231415Z 22004KT 9999 FEW047TCU SCT083 20/14 Q1016 NOSIG RMK BLU

EXPIRED METARs :
  • 231345Z 23006KT 190V280 9999 FEW013 20/13 Q1016 NOSIG RMK BLU
  • 231315Z 25006KT 200V290 9999 FEW013 SCT047TCU SCT083 19/15 Q1016 TEMPO SHRA TSRA RMK BLU
  • 231245Z 24006KT 230V290 9999 FEW013 SCT047TCU SCT083 18/14 Q1016 TEMPO SHRA TSRA RMK BLU
  • 231215Z 25004KT 9999 FEW013 SCT047TCU BKN083 18/14 Q1016 TEMPO SHRA TSRA RMK BLU
  • 231145Z 22004KT 9999 FEW013 SCT047TCU BKN083 18/13 Q1017 TEMPO SHRA TSRA RMK BLU

TAF TAF LHPA
Valid from the 23 at 12:00 until the 24 at 12:00 UTC


231115Z 2312/2412 VRB03KT 9999 SCT040 BKN080
TEMPO 2312/2315 VRB10G20KT 3000 SHRA -TSRA SCT010 SCT030CB BKN040TCU
PROB30
TEMPO 2315/2318 5000 SHRA FEW015 SCT030CB BKN080
BECMG 2318/2320 CAVOK
BECMG 2320/2322 6000 NSC
PROB40
TEMPO 2322/2406 3000 BR
BECMG 2407/2410 33014KT 9999 SCT030TCU BKN080
TEMPO 2407/2412 33015G28KT 5000 SHRA -TSRA SCT010 SCT030CB BKN050
No reported NOTAMs for that airfield.
1 SIGMET reported for the Budapest FIR (LHCC) :
 
Frequent thunderstorms
LHCC SIGMET 09 VALID 231300/231500 LHBP
LHCC BUDAPEST FIR FRQ TS OBS WI N4545 E01820 - N4705 E01840 - N4705 E02000 - N4625 E02005 - N4545 E01820 TOP FL400 MOV NE INTSF=



MET'MAP, your aeronautical weather chart ! - Copyright ORBIFLY December 2007 - Disclaimer

ORBIFLY MET'MAP TEAM :

Programming & Development : Alexandra Zaïnal
Concept & Development : Baudouin d'Aumeries
Co-Development & Prog : Marc-Olivier Méhu
Technical & hardware support : Manuel Goepfert

Contact : metmap@orbifly.com




SOURCES & CREDITS :

   NOAA